createdAt,value
2023-06-10T00:00:13.715Z,19.01
2023-06-10T00:02:17.925Z,18.96
2023-06-10T00:04:20.085Z,18.91
2023-06-10T00:06:25.401Z,18.89
2023-06-10T00:08:27.543Z,18.98
2023-06-10T00:10:29.542Z,18.86
2023-06-10T00:12:32.345Z,18.75
2023-06-10T00:14:35.047Z,18.70
2023-06-10T00:16:37.414Z,18.69
2023-06-10T00:18:39.977Z,18.70
2023-06-10T00:20:42.051Z,18.69
2023-06-10T00:22:46.992Z,18.58
2023-06-10T00:24:49.640Z,18.57
2023-06-10T00:26:51.957Z,18.59
2023-06-10T00:28:54.041Z,18.52
2023-06-10T00:30:56.018Z,18.48
2023-06-10T00:32:58.106Z,18.49
2023-06-10T00:35:00.160Z,18.51
2023-06-10T00:37:02.369Z,18.49
2023-06-10T00:39:05.738Z,18.42
2023-06-10T00:41:08.206Z,18.46
2023-06-10T00:43:10.453Z,18.49
2023-06-10T00:45:13.012Z,18.42
2023-06-10T00:47:15.229Z,18.47
2023-06-10T00:49:18.043Z,18.44
2023-06-10T00:51:20.021Z,18.47
2023-06-10T00:53:23.018Z,18.46
2023-06-10T00:55:25.806Z,18.51
2023-06-10T00:57:27.926Z,18.49
2023-06-10T00:59:30.085Z,18.49
2023-06-10T01:01:33.485Z,18.50
2023-06-10T01:03:38.231Z,18.46
2023-06-10T01:05:40.576Z,18.57
2023-06-10T01:07:54.731Z,18.61
2023-06-10T01:10:25.295Z,18.64
2023-06-10T01:13:04.163Z,18.64
2023-06-10T01:15:06.882Z,18.58
2023-06-10T01:17:10.945Z,18.60
2023-06-10T01:19:14.177Z,18.63
2023-06-10T01:21:25.600Z,18.57
2023-06-10T01:23:28.382Z,18.51
2023-06-10T01:25:30.923Z,18.55
2023-06-10T01:27:34.724Z,18.52
2023-06-10T01:29:43.716Z,18.51
2023-06-10T01:32:02.964Z,18.50
2023-06-10T01:34:09.335Z,18.42
2023-06-10T01:36:11.369Z,18.42
2023-06-10T01:38:13.958Z,18.42
2023-06-10T01:40:16.102Z,18.34
2023-06-10T01:42:18.100Z,18.34
2023-06-10T01:44:21.824Z,18.29
2023-06-10T01:46:24.050Z,18.19
2023-06-10T01:48:26.056Z,18.20
2023-06-10T01:50:28.097Z,18.19
2023-06-10T01:52:30.182Z,18.23
2023-06-10T01:54:32.463Z,18.19
2023-06-10T01:56:34.526Z,18.15
2023-06-10T01:58:36.594Z,18.22
2023-06-10T02:00:38.647Z,18.22
2023-06-10T02:02:40.881Z,18.21
2023-06-10T02:04:43.008Z,18.21
2023-06-10T02:06:45.050Z,18.11
2023-06-10T02:08:47.083Z,18.09
2023-06-10T02:10:49.084Z,18.05
2023-06-10T02:12:51.117Z,18.04
2023-06-10T02:14:53.147Z,18.08
2023-06-10T02:16:57.610Z,18.06
2023-06-10T02:18:59.974Z,18.03
2023-06-10T02:21:01.993Z,18.02
2023-06-10T02:23:04.530Z,18.01
2023-06-10T02:25:07.225Z,17.93
2023-06-10T02:27:09.548Z,17.92
2023-06-10T02:29:12.170Z,17.95
2023-06-10T02:31:14.677Z,17.90
2023-06-10T02:33:18.781Z,17.90
2023-06-10T02:35:21.058Z,17.89
2023-06-10T02:37:23.158Z,17.77
2023-06-10T02:39:25.206Z,17.74
2023-06-10T02:41:27.543Z,17.74
2023-06-10T02:43:29.588Z,17.73
2023-06-10T02:45:31.519Z,17.69
2023-06-10T02:47:33.530Z,17.68
2023-06-10T02:49:35.652Z,17.67
2023-06-10T02:51:38.093Z,17.76
2023-06-10T02:53:40.030Z,17.73
2023-06-10T02:55:42.172Z,17.76
2023-06-10T02:57:44.212Z,17.71
2023-06-10T02:59:46.256Z,17.72
2023-06-10T03:01:48.343Z,17.73
2023-06-10T03:03:51.651Z,17.70
2023-06-10T03:05:53.818Z,17.67
2023-06-10T03:07:55.928Z,17.66
2023-06-10T03:09:57.957Z,17.66
2023-06-10T03:11:59.987Z,17.67
2023-06-10T03:14:01.986Z,17.54
2023-06-10T03:16:04.634Z,17.57
2023-06-10T03:18:08.116Z,17.54
2023-06-10T03:20:11.434Z,17.47
2023-06-10T03:22:17.573Z,17.36
2023-06-10T03:24:19.712Z,17.42
2023-06-10T03:26:22.761Z,17.31
2023-06-10T03:28:25.057Z,17.22
2023-06-10T03:30:28.678Z,17.22
2023-06-10T03:32:30.937Z,17.15
2023-06-10T03:34:32.970Z,17.13
2023-06-10T03:36:34.980Z,17.06
2023-06-10T03:38:37.789Z,17.13
2023-06-10T03:40:39.810Z,17.11
2023-06-10T03:42:41.898Z,17.09
2023-06-10T03:44:43.979Z,17.06
2023-06-10T03:46:46.758Z,17.04
2023-06-10T03:48:49.661Z,17.09
2023-06-10T03:50:52.072Z,17.02
2023-06-10T03:52:54.050Z,17.03
2023-06-10T03:54:56.007Z,17.01
2023-06-10T03:56:57.944Z,16.97
2023-06-10T03:59:00.190Z,17.06
2023-06-10T04:01:02.198Z,17.10
2023-06-10T04:03:04.274Z,17.13
2023-06-10T04:05:07.598Z,17.16
2023-06-10T04:07:09.945Z,17.21
2023-06-10T04:09:12.591Z,17.23
2023-06-10T04:11:14.548Z,17.28
2023-06-10T04:13:16.530Z,17.31
2023-06-10T04:15:18.604Z,17.38
2023-06-10T04:17:20.782Z,17.45
2023-06-10T04:19:22.804Z,17.50
2023-06-10T04:21:25.881Z,17.54
2023-06-10T04:23:27.964Z,17.66
2023-06-10T04:25:30.063Z,17.58
2023-06-10T04:27:32.075Z,17.67
2023-06-10T04:29:34.087Z,17.72
2023-06-10T04:31:36.119Z,17.80
2023-06-10T04:33:40.536Z,17.77
2023-06-10T04:35:43.466Z,17.77
2023-06-10T04:37:45.793Z,17.77
2023-06-10T04:39:47.875Z,17.84
2023-06-10T04:41:49.922Z,17.89
2023-06-10T04:43:52.503Z,17.90
2023-06-10T04:45:54.431Z,17.91
2023-06-10T04:47:57.190Z,17.96
2023-06-10T04:49:59.425Z,17.97
2023-06-10T04:52:01.559Z,18.03
2023-06-10T04:54:04.987Z,18.11
2023-06-10T04:56:08.806Z,18.17
2023-06-10T04:58:10.783Z,18.19
2023-06-10T05:00:13.402Z,18.24
2023-06-10T05:02:15.673Z,18.29
2023-06-10T05:04:17.828Z,18.34
2023-06-10T05:06:19.907Z,18.42
2023-06-10T05:08:21.896Z,18.45
2023-06-10T05:10:24.063Z,18.45
2023-06-10T05:12:26.106Z,18.48
2023-06-10T05:14:28.659Z,18.51
2023-06-10T05:16:30.713Z,18.54
2023-06-10T05:18:33.197Z,18.53
2023-06-10T05:20:35.288Z,18.52
2023-06-10T05:22:37.244Z,18.47
2023-06-10T05:24:39.521Z,18.52
2023-06-10T05:26:42.334Z,18.58
2023-06-10T05:28:44.526Z,18.58
2023-06-10T05:30:46.572Z,18.59
2023-06-10T05:32:49.581Z,18.59
2023-06-10T05:34:51.673Z,18.63
2023-06-10T05:36:53.635Z,18.59
2023-06-10T05:38:55.766Z,18.60
2023-06-10T05:40:58.233Z,18.54
2023-06-10T05:43:00.221Z,18.55
2023-06-10T05:45:03.516Z,18.59
2023-06-10T05:47:05.855Z,18.62
2023-06-10T05:49:07.916Z,18.67
2023-06-10T05:51:09.987Z,18.61
2023-06-10T05:53:16.292Z,18.62
2023-06-10T05:55:18.503Z,18.65
2023-06-10T05:57:20.624Z,18.61
2023-06-10T05:59:23.962Z,18.64
2023-06-10T06:01:26.215Z,18.60
2023-06-10T06:03:29.910Z,18.62
2023-06-10T06:05:36.084Z,18.63
2023-06-10T06:07:38.135Z,18.60
2023-06-10T06:09:40.217Z,18.57
2023-06-10T06:11:42.360Z,18.56
2023-06-10T06:13:44.416Z,18.54
2023-06-10T06:15:46.610Z,18.62
2023-06-10T06:17:48.668Z,18.59
2023-06-10T06:19:50.702Z,18.59
2023-06-10T06:21:52.684Z,18.64
2023-06-10T06:23:54.873Z,18.68
2023-06-10T06:25:56.990Z,18.55
2023-06-10T06:27:59.080Z,18.59
2023-06-10T06:30:01.218Z,18.65
2023-06-10T06:32:04.292Z,18.76
2023-06-10T06:34:06.358Z,18.97
2023-06-10T06:36:08.415Z,18.92
2023-06-10T06:38:10.541Z,18.95
2023-06-10T06:40:13.148Z,19.10
2023-06-10T06:42:15.167Z,19.25
2023-06-10T06:44:17.142Z,19.37
2023-06-10T06:46:19.190Z,19.54
2023-06-10T06:48:22.018Z,19.72
2023-06-10T06:50:24.234Z,19.86
2023-06-10T06:52:26.346Z,19.90
2023-06-10T06:54:28.288Z,19.93
2023-06-10T06:56:30.317Z,20.10
2023-06-10T06:58:32.346Z,20.21
2023-06-10T07:00:34.325Z,20.24
2023-06-10T07:02:36.729Z,20.33
2023-06-10T07:04:38.742Z,20.42
2023-06-10T07:06:40.780Z,20.44
2023-06-10T07:08:43.121Z,20.55
2023-06-10T07:10:45.209Z,20.48
2023-06-10T07:12:47.187Z,20.55
2023-06-10T07:14:49.173Z,20.60
2023-06-10T07:16:51.290Z,20.60
2023-06-10T07:18:54.012Z,20.62
2023-06-10T07:20:55.967Z,20.78
2023-06-10T07:22:57.965Z,20.80
2023-06-10T07:25:00.005Z,20.87
2023-06-10T07:27:01.954Z,20.94
2023-06-10T07:29:03.966Z,20.81
2023-06-10T07:31:06.149Z,20.90
2023-06-10T07:33:09.064Z,20.91
2023-06-10T07:35:14.237Z,21.06
2023-06-10T07:37:16.273Z,21.14
2023-06-10T07:39:18.329Z,21.13
2023-06-10T07:41:20.721Z,21.26
2023-06-10T07:43:22.660Z,21.34
2023-06-10T07:45:24.815Z,21.45
2023-06-10T07:47:26.869Z,21.59
2023-06-10T07:49:28.891Z,21.60
2023-06-10T07:51:30.926Z,21.57
2023-06-10T07:53:32.892Z,21.77
2023-06-10T07:55:34.881Z,21.78
2023-06-10T07:57:37.703Z,21.88
2023-06-10T07:59:39.632Z,22.01
2023-06-10T08:01:41.708Z,22.12
2023-06-10T08:03:44.241Z,22.20
2023-06-10T08:05:46.540Z,22.27
2023-06-10T08:07:48.638Z,22.31
2023-06-10T08:09:50.587Z,22.41
2023-06-10T08:11:52.751Z,22.47
2023-06-10T08:13:55.273Z,22.48
2023-06-10T08:15:57.343Z,22.61
2023-06-10T08:17:59.356Z,22.81
2023-06-10T08:20:01.972Z,22.90
2023-06-10T08:22:04.216Z,22.89
2023-06-10T08:24:07.358Z,23.05
2023-06-10T08:26:09.459Z,23.16
2023-06-10T08:28:11.534Z,23.12
2023-06-10T08:30:14.407Z,23.34
2023-06-10T08:32:16.460Z,23.43
2023-06-10T08:34:18.681Z,23.55
2023-06-10T08:36:20.816Z,23.54
2023-06-10T08:38:23.896Z,23.45
2023-06-10T08:40:25.984Z,23.57
2023-06-10T08:42:44.239Z,23.66
2023-06-10T08:44:47.442Z,23.84
2023-06-10T08:46:49.535Z,23.98
2023-06-10T08:48:52.391Z,23.98
2023-06-10T08:50:54.555Z,24.06
2023-06-10T08:52:59.450Z,24.22
2023-06-10T08:55:03.651Z,24.21
2023-06-10T08:57:09.449Z,24.34
2023-06-10T08:59:11.552Z,24.47
2023-06-10T09:01:13.780Z,24.34
2023-06-10T09:03:15.934Z,24.45
2023-06-10T09:05:18.006Z,24.52
2023-06-10T09:07:21.052Z,24.55
2023-06-10T09:09:23.769Z,24.66
2023-06-10T09:11:26.160Z,24.56
2023-06-10T09:13:28.147Z,24.60
2023-06-10T09:15:30.239Z,24.47
2023-06-10T09:17:32.417Z,24.67
2023-06-10T09:19:34.459Z,24.82
2023-06-10T09:21:39.360Z,24.47
2023-06-10T09:23:41.417Z,24.43
2023-06-10T09:25:43.463Z,24.75
2023-06-10T09:27:58.015Z,24.53
2023-06-10T09:30:00.255Z,24.68
2023-06-10T09:32:02.309Z,25.05
2023-06-10T09:34:14.590Z,25.02
2023-06-10T09:36:23.920Z,25.22
2023-06-10T09:38:30.899Z,24.88
2023-06-10T09:40:32.847Z,25.24
2023-06-10T09:42:36.462Z,25.16
2023-06-10T09:44:38.488Z,25.43
2023-06-10T09:46:40.525Z,25.78
2023-06-10T09:48:44.888Z,25.27
2023-06-10T09:50:47.001Z,25.15
2023-06-10T09:52:51.732Z,25.48
2023-06-10T09:55:02.789Z,25.29
2023-06-10T09:57:08.917Z,25.63
2023-06-10T09:59:10.893Z,25.57
2023-06-10T10:01:14.253Z,25.85
2023-06-10T10:03:23.888Z,25.76
2023-06-10T10:05:26.190Z,25.77
2023-06-10T10:07:28.267Z,25.92
2023-06-10T10:09:30.294Z,26.17
2023-06-10T10:11:32.311Z,26.54
2023-06-10T10:13:35.396Z,26.66
2023-06-10T10:15:40.168Z,26.60
2023-06-10T10:17:46.500Z,26.60
2023-06-10T10:19:50.194Z,26.74
2023-06-10T10:21:54.819Z,27.12
2023-06-10T10:24:08.865Z,26.87
2023-06-10T10:26:11.380Z,27.25
2023-06-10T10:28:13.725Z,27.41
2023-06-10T10:30:16.102Z,27.19
2023-06-10T10:32:18.217Z,27.12
2023-06-10T10:34:22.861Z,26.62
2023-06-10T10:36:24.895Z,26.61
2023-06-10T10:38:26.836Z,27.06
2023-06-10T10:40:30.457Z,27.52
2023-06-10T10:42:32.430Z,27.32
2023-06-10T10:44:34.543Z,27.80
2023-06-10T10:46:49.565Z,27.76
2023-06-10T10:48:55.530Z,28.04
2023-06-10T10:50:59.054Z,28.46
2023-06-10T10:53:02.633Z,28.21
2023-06-10T10:55:04.916Z,28.31
2023-06-10T10:57:13.716Z,28.54
2023-06-10T10:59:19.196Z,28.77
2023-06-10T11:01:21.288Z,28.40
2023-06-10T11:03:23.792Z,28.17
2023-06-10T11:05:43.015Z,28.35
2023-06-10T11:07:58.085Z,28.81
2023-06-10T11:10:03.370Z,29.00
2023-06-10T11:12:05.927Z,29.19
2023-06-10T11:14:09.915Z,29.45
2023-06-10T11:16:12.910Z,28.99
2023-06-10T11:18:27.712Z,29.01
2023-06-10T11:20:51.620Z,28.67
2023-06-10T11:22:59.865Z,28.56
2023-06-10T11:25:01.873Z,29.26
2023-06-10T11:27:25.526Z,29.03
2023-06-10T11:29:29.816Z,28.95
2023-06-10T11:31:41.980Z,28.95
2023-06-10T11:33:44.045Z,28.91
2023-06-10T11:35:46.056Z,28.92
2023-06-10T11:37:48.427Z,29.17
2023-06-10T11:39:57.401Z,29.16
2023-06-10T11:41:59.475Z,28.75
2023-06-10T11:44:12.345Z,28.20
2023-06-10T11:46:15.472Z,28.71
2023-06-10T11:48:17.529Z,28.72
2023-06-10T11:50:32.278Z,28.73
2023-06-10T11:52:39.076Z,29.44
2023-06-10T11:54:41.180Z,29.11
2023-06-10T11:56:43.255Z,28.91
2023-06-10T11:58:45.192Z,28.30
2023-06-10T12:00:47.774Z,28.74
2023-06-10T12:02:58.800Z,29.23
2023-06-10T12:05:16.516Z,29.27
2023-06-10T12:07:23.434Z,29.61
2023-06-10T12:09:29.747Z,29.67
2023-06-10T12:11:31.960Z,29.53
2023-06-10T12:13:34.156Z,29.13
2023-06-10T12:15:36.267Z,28.92
2023-06-10T12:17:39.349Z,28.62
2023-06-10T12:19:41.793Z,28.73
2023-06-10T12:21:43.870Z,28.99
2023-06-10T12:24:06.803Z,28.63
2023-06-10T12:26:08.857Z,28.12
2023-06-10T12:28:11.649Z,28.18
2023-06-10T12:30:22.697Z,28.27
2023-06-10T12:32:38.878Z,28.29
2023-06-10T12:34:41.534Z,28.78
2023-06-10T12:36:49.865Z,29.14
2023-06-10T12:38:53.767Z,29.19
2023-06-10T12:40:57.444Z,28.97
2023-06-10T12:43:00.246Z,28.99
2023-06-10T12:45:02.367Z,28.62
2023-06-10T12:47:11.200Z,29.13
2023-06-10T12:49:22.497Z,29.42
2023-06-10T12:51:24.464Z,29.90
2023-06-10T12:53:27.875Z,29.10
2023-06-10T12:55:29.880Z,29.16
2023-06-10T12:57:32.634Z,29.05
2023-06-10T12:59:34.761Z,29.57
2023-06-10T13:01:38.311Z,29.42
2023-06-10T13:03:41.506Z,29.60
2023-06-10T13:05:44.335Z,29.38
2023-06-10T13:07:46.286Z,29.79
2023-06-10T13:09:50.381Z,29.12
2023-06-10T13:11:53.845Z,29.86
2023-06-10T13:13:55.878Z,28.90
2023-06-10T13:15:57.835Z,29.79
2023-06-10T13:17:59.824Z,29.88
2023-06-10T13:20:02.022Z,29.72
2023-06-10T13:22:04.207Z,29.57
2023-06-10T13:24:06.367Z,29.84
2023-06-10T13:26:08.433Z,29.95
2023-06-10T13:28:10.522Z,30.26
2023-06-10T13:30:13.453Z,30.26
2023-06-10T13:32:15.499Z,30.09
2023-06-10T13:34:17.809Z,29.75
2023-06-10T13:36:19.842Z,29.89
2023-06-10T13:38:21.878Z,29.62
2023-06-10T13:40:23.877Z,29.71
2023-06-10T13:42:27.698Z,30.00
2023-06-10T13:44:32.113Z,29.48
2023-06-10T13:46:34.082Z,29.91
2023-06-10T13:48:36.602Z,30.04
2023-06-10T13:50:39.119Z,30.18
2023-06-10T13:52:41.112Z,29.91
2023-06-10T13:54:43.136Z,30.08
2023-06-10T13:56:45.097Z,29.95
2023-06-10T13:58:47.207Z,29.84
2023-06-10T14:00:49.284Z,29.55
2023-06-10T14:02:51.348Z,29.00
2023-06-10T14:04:53.367Z,29.01
2023-06-10T14:06:55.374Z,29.49
2023-06-10T14:08:57.469Z,29.57
2023-06-10T14:10:59.874Z,29.94
2023-06-10T14:13:01.918Z,30.40
2023-06-10T14:15:04.256Z,30.21
2023-06-10T14:17:06.624Z,30.19
2023-06-10T14:19:08.693Z,30.01
2023-06-10T14:21:10.940Z,30.29
2023-06-10T14:23:12.969Z,30.33
2023-06-10T14:25:14.936Z,30.10
2023-06-10T14:27:16.900Z,29.72
2023-06-10T14:29:20.513Z,29.84
2023-06-10T14:31:22.651Z,29.79
2023-06-10T14:33:24.705Z,29.96
2023-06-10T14:35:26.810Z,29.73
2023-06-10T14:37:28.918Z,29.48
2023-06-10T14:39:30.968Z,28.90
2023-06-10T14:41:33.084Z,29.22
2023-06-10T14:43:35.155Z,29.20
2023-06-10T14:45:38.379Z,28.82
2023-06-10T14:47:40.500Z,28.91
2023-06-10T14:49:43.328Z,29.40
2023-06-10T14:51:45.907Z,29.23
2023-06-10T14:53:48.005Z,29.25
2023-06-10T14:55:50.043Z,29.58
2023-06-10T14:57:52.138Z,29.42
2023-06-10T14:59:54.231Z,28.77
2023-06-10T15:01:56.304Z,28.65
2023-06-10T15:03:58.318Z,28.40
2023-06-10T15:06:01.728Z,29.32
2023-06-10T15:08:03.714Z,28.63
2023-06-10T15:10:06.358Z,28.89
2023-06-10T15:12:08.691Z,28.87
2023-06-10T15:14:11.170Z,29.25
2023-06-10T15:16:13.247Z,28.91
2023-06-10T15:18:15.431Z,29.41
2023-06-10T15:20:17.477Z,29.55
2023-06-10T15:22:19.847Z,29.70
2023-06-10T15:24:22.015Z,29.78
2023-06-10T15:26:24.104Z,30.51
2023-06-10T15:28:28.204Z,30.85
2023-06-10T15:30:30.912Z,30.31
2023-06-10T15:32:32.972Z,29.90
2023-06-10T15:34:34.996Z,30.30
2023-06-10T15:36:37.737Z,30.36
2023-06-10T15:38:39.689Z,30.07
2023-06-10T15:40:44.794Z,30.79
2023-06-10T15:42:46.886Z,30.72
2023-06-10T15:44:49.070Z,30.84
2023-06-10T15:46:51.491Z,30.55
2023-06-10T15:48:54.699Z,30.84
2023-06-10T15:50:56.707Z,30.87
2023-06-10T15:52:58.814Z,30.94
2023-06-10T15:55:00.736Z,31.05
2023-06-10T15:57:04.270Z,30.64
2023-06-10T15:59:06.410Z,30.70
2023-06-10T16:01:10.318Z,30.61
2023-06-10T16:03:12.584Z,30.50
2023-06-10T16:05:14.666Z,30.07
2023-06-10T16:07:16.620Z,29.72
2023-06-10T16:09:18.618Z,30.03
2023-06-10T16:11:20.803Z,29.29
2023-06-10T16:13:22.852Z,29.28
2023-06-10T16:15:24.822Z,29.10
2023-06-10T16:17:27.069Z,28.48
2023-06-10T16:19:29.454Z,29.18
2023-06-10T16:21:32.060Z,28.58
2023-06-10T16:23:34.234Z,28.33
2023-06-10T16:25:36.368Z,28.89
2023-06-10T16:27:38.327Z,28.91
2023-06-10T16:29:40.267Z,29.28
2023-06-10T16:31:42.236Z,29.26
2023-06-10T16:33:44.300Z,29.11
2023-06-10T16:35:46.301Z,29.15
2023-06-10T16:37:48.282Z,29.21
2023-06-10T16:39:50.223Z,28.92
2023-06-10T16:41:52.229Z,28.67
2023-06-10T16:43:54.402Z,28.63
2023-06-10T16:45:58.282Z,28.33
2023-06-10T16:48:00.511Z,27.41
2023-06-10T16:50:02.785Z,27.40
2023-06-10T16:52:06.656Z,26.99
2023-06-10T16:54:08.949Z,27.15
2023-06-10T16:56:11.197Z,27.46
2023-06-10T16:58:13.274Z,27.20
2023-06-10T17:00:16.512Z,26.82
2023-06-10T17:02:19.068Z,26.60
2023-06-10T17:04:21.138Z,26.18
2023-06-10T17:06:23.352Z,25.62
2023-06-10T17:08:25.797Z,25.74
2023-06-10T17:10:27.888Z,25.62
2023-06-10T17:12:29.842Z,25.70
2023-06-10T17:14:31.963Z,25.77
2023-06-10T17:16:34.098Z,25.33
2023-06-10T17:18:36.216Z,25.30
2023-06-10T17:20:38.381Z,25.47
2023-06-10T17:22:40.590Z,25.47
2023-06-10T17:24:43.009Z,25.13
2023-06-10T17:26:45.061Z,24.92
2023-06-10T17:28:47.023Z,24.84
2023-06-10T17:30:49.058Z,24.74
2023-06-10T17:32:52.158Z,24.60
2023-06-10T17:34:54.172Z,24.73
2023-06-10T17:36:56.119Z,24.58
2023-06-10T17:38:58.089Z,24.50
2023-06-10T17:41:00.153Z,24.22
2023-06-10T17:43:02.195Z,24.10
2023-06-10T17:45:04.304Z,24.26
2023-06-10T17:47:06.608Z,24.40
2023-06-10T17:49:10.561Z,23.96
2023-06-10T17:51:12.651Z,23.96
2023-06-10T17:53:14.688Z,24.07
2023-06-10T17:55:16.724Z,23.96
2023-06-10T17:57:18.713Z,24.06
2023-06-10T17:59:20.672Z,23.87
2023-06-10T18:01:22.704Z,23.70
2023-06-10T18:03:27.765Z,23.61
2023-06-10T18:05:30.058Z,23.59
2023-06-10T18:07:32.655Z,23.69
2023-06-10T18:09:34.717Z,23.70
2023-06-10T18:11:36.713Z,23.76
2023-06-10T18:13:38.791Z,23.48
2023-06-10T18:15:40.972Z,23.49
2023-06-10T18:17:42.956Z,23.40
2023-06-10T18:19:44.968Z,23.01
2023-06-10T18:21:46.994Z,22.60
2023-06-10T18:23:49.134Z,22.71
2023-06-10T18:25:51.309Z,22.43
2023-06-10T18:27:53.346Z,22.45
2023-06-10T18:29:55.450Z,22.49
2023-06-10T18:31:57.593Z,22.35
2023-06-10T18:33:59.648Z,22.12
2023-06-10T18:36:01.637Z,22.24
2023-06-10T18:38:03.712Z,21.84
2023-06-10T18:40:09.797Z,21.97
2023-06-10T18:42:13.035Z,22.01
2023-06-10T18:44:15.064Z,22.01
2023-06-10T18:46:17.188Z,21.92
2023-06-10T18:48:19.361Z,21.71
2023-06-10T18:50:21.674Z,21.63
2023-06-10T18:52:23.737Z,21.74
2023-06-10T18:54:26.165Z,21.74
2023-06-10T18:56:28.165Z,21.45
2023-06-10T18:58:36.790Z,21.26
2023-06-10T19:00:38.962Z,21.12
2023-06-10T19:02:41.101Z,20.93
2023-06-10T19:04:43.289Z,20.83
2023-06-10T19:06:45.435Z,20.73
2023-06-10T19:08:47.695Z,20.87
2023-06-10T19:10:49.829Z,20.88
2023-06-10T19:12:51.826Z,20.63
2023-06-10T19:14:54.011Z,20.63
2023-06-10T19:16:56.313Z,20.67
2023-06-10T19:18:58.321Z,20.31
2023-06-10T19:21:00.556Z,20.30
2023-06-10T19:23:03.971Z,20.38
2023-06-10T19:25:07.567Z,20.27
2023-06-10T19:27:09.687Z,20.05
2023-06-10T19:29:11.706Z,20.06
2023-06-10T19:31:13.939Z,19.92
2023-06-10T19:33:16.093Z,19.93
2023-06-10T19:35:18.188Z,19.92
2023-06-10T19:37:20.261Z,19.97
2023-06-10T19:39:22.245Z,19.92
2023-06-10T19:41:24.942Z,19.85
2023-06-10T19:43:26.933Z,19.84
2023-06-10T19:45:28.974Z,19.69
2023-06-10T19:47:31.145Z,19.62
2023-06-10T19:49:33.262Z,19.51
2023-06-10T19:51:35.378Z,19.32
2023-06-10T19:53:37.446Z,19.34
2023-06-10T19:55:39.457Z,19.30
2023-06-10T19:57:41.565Z,19.12
2023-06-10T19:59:43.599Z,18.94
2023-06-10T20:01:45.775Z,18.91
2023-06-10T20:03:47.897Z,18.81
2023-06-10T20:05:49.930Z,18.75
2023-06-10T20:07:51.975Z,18.74
2023-06-10T20:09:54.030Z,18.73
2023-06-10T20:11:56.091Z,18.66
2023-06-10T20:13:58.061Z,18.64
2023-06-10T20:16:00.219Z,18.56
2023-06-10T20:18:02.302Z,18.54
2023-06-10T20:20:05.033Z,18.45
2023-06-10T20:22:07.020Z,18.47
2023-06-10T20:24:09.586Z,18.58
2023-06-10T20:26:11.807Z,18.52
2023-06-10T20:28:13.901Z,18.45
2023-06-10T20:30:16.251Z,18.35
2023-06-10T20:32:18.455Z,18.28
2023-06-10T20:34:20.753Z,18.13
2023-06-10T20:36:23.122Z,18.01
2023-06-10T20:38:25.216Z,18.09
2023-06-10T20:40:27.172Z,18.17
2023-06-10T20:42:29.343Z,18.09
2023-06-10T20:44:32.227Z,17.97
2023-06-10T20:46:34.294Z,18.04
2023-06-10T20:48:36.405Z,17.96
2023-06-10T20:50:38.473Z,17.98
2023-06-10T20:52:40.566Z,17.98
2023-06-10T20:54:42.859Z,17.83
2023-06-10T20:56:45.866Z,17.83
2023-06-10T20:58:47.949Z,17.80
2023-06-10T21:00:50.008Z,17.79
2023-06-10T21:02:52.042Z,17.79
2023-06-10T21:04:55.714Z,17.65
2023-06-10T21:06:57.690Z,17.58
2023-06-10T21:08:59.686Z,17.54
2023-06-10T21:11:01.737Z,17.65
2023-06-10T21:13:03.716Z,17.54
2023-06-10T21:15:07.222Z,17.42
2023-06-10T21:17:09.481Z,17.44
2023-06-10T21:19:12.346Z,17.50
2023-06-10T21:21:14.381Z,17.47
2023-06-10T21:23:16.471Z,17.20
2023-06-10T21:25:18.623Z,17.21
2023-06-10T21:27:21.238Z,17.36
2023-06-10T21:29:23.929Z,17.35
2023-06-10T21:31:26.364Z,17.29
2023-06-10T21:33:28.744Z,17.31
2023-06-10T21:35:30.850Z,17.27
2023-06-10T21:37:32.943Z,17.26
2023-06-10T21:39:35.031Z,17.23
2023-06-10T21:41:37.031Z,17.29
2023-06-10T21:43:39.112Z,17.26
2023-06-10T21:45:41.150Z,17.24
2023-06-10T21:47:43.292Z,17.15
2023-06-10T21:49:45.301Z,17.13
2023-06-10T21:51:47.229Z,17.10
2023-06-10T21:53:49.253Z,17.12
2023-06-10T21:55:51.383Z,17.09
2023-06-10T21:57:53.470Z,17.01
2023-06-10T21:59:55.712Z,16.99
2023-06-10T22:01:57.749Z,16.92
2023-06-10T22:03:59.859Z,16.97
2023-06-10T22:06:03.133Z,16.85
2023-06-10T22:08:05.291Z,16.90
2023-06-10T22:10:07.778Z,16.91
2023-06-10T22:12:10.321Z,16.75
2023-06-10T22:14:12.372Z,16.80
2023-06-10T22:16:14.444Z,16.85
2023-06-10T22:18:16.510Z,16.72
2023-06-10T22:20:18.600Z,16.62
2023-06-10T22:22:21.000Z,16.60
2023-06-10T22:24:23.060Z,16.55
2023-06-10T22:26:33.695Z,16.57
2023-06-10T22:28:45.928Z,16.50
2023-06-10T22:30:47.941Z,16.45
2023-06-10T22:32:50.084Z,16.48
2023-06-10T22:34:52.174Z,16.42
2023-06-10T22:36:54.233Z,16.40
2023-06-10T22:38:56.266Z,16.41
2023-06-10T22:40:58.298Z,16.42
2023-06-10T22:43:00.879Z,16.39
2023-06-10T22:45:02.856Z,16.31
2023-06-10T22:47:05.175Z,16.35
2023-06-10T22:49:07.209Z,16.30
2023-06-10T22:51:09.181Z,16.22
2023-06-10T22:53:11.426Z,16.21
2023-06-10T22:55:13.597Z,16.16
2023-06-10T22:57:15.624Z,16.16
2023-06-10T22:59:17.672Z,15.92
2023-06-10T23:01:19.723Z,15.98
2023-06-10T23:03:21.997Z,15.94
2023-06-10T23:05:24.120Z,15.95
2023-06-10T23:07:26.362Z,15.93
2023-06-10T23:09:28.350Z,15.89
2023-06-10T23:11:30.489Z,15.89
2023-06-10T23:13:32.454Z,15.89
2023-06-10T23:15:34.505Z,15.90
2023-06-10T23:17:36.587Z,15.84
2023-06-10T23:19:42.114Z,15.73
2023-06-10T23:21:49.849Z,15.74
2023-06-10T23:23:53.658Z,15.69
2023-06-10T23:25:55.759Z,15.72
2023-06-10T23:27:57.912Z,15.65
2023-06-10T23:30:00.878Z,15.62
2023-06-10T23:32:03.185Z,15.58
2023-06-10T23:34:05.328Z,15.57
2023-06-10T23:36:07.682Z,15.61
2023-06-10T23:38:09.675Z,15.57
2023-06-10T23:40:12.371Z,15.61
2023-06-10T23:42:14.412Z,15.55
2023-06-10T23:44:16.453Z,15.42
2023-06-10T23:46:18.518Z,15.43
2023-06-10T23:48:20.574Z,15.45
2023-06-10T23:50:22.572Z,15.46
2023-06-10T23:52:24.669Z,15.44
2023-06-10T23:54:27.820Z,15.40
2023-06-10T23:56:30.538Z,15.38
2023-06-10T23:58:32.472Z,15.32
